createdAt,value
2022-11-15T00:00:11.818Z,6.53
2022-11-15T00:03:19.841Z,6.22
2022-11-15T00:06:26.100Z,6.65
2022-11-15T00:09:32.124Z,5.43
2022-11-15T00:12:38.375Z,6.22
2022-11-15T00:15:44.487Z,5.20
2022-11-15T00:18:51.134Z,6.28
2022-11-15T00:21:57.322Z,5.22
2022-11-15T00:25:04.617Z,5.07
2022-11-15T00:28:10.610Z,4.32
2022-11-15T00:31:16.957Z,4.57
2022-11-15T00:34:23.028Z,4.57
2022-11-15T00:37:28.872Z,7.13
2022-11-15T00:40:35.147Z,5.45
2022-11-15T00:43:43.360Z,5.78
2022-11-15T00:46:49.332Z,7.47
2022-11-15T00:49:55.695Z,6.57
2022-11-15T00:53:02.042Z,6.57
2022-11-15T00:56:08.585Z,6.53
2022-11-15T00:59:17.048Z,5.55
2022-11-15T01:02:23.319Z,6.18
2022-11-15T01:05:31.716Z,4.80
2022-11-15T01:08:42.974Z,4.90
2022-11-15T01:11:48.967Z,5.80
2022-11-15T01:14:55.398Z,6.70
2022-11-15T01:18:01.834Z,5.88
2022-11-15T01:21:17.912Z,5.30
2022-11-15T01:24:23.877Z,5.45
2022-11-15T01:27:29.787Z,5.97
2022-11-15T01:30:37.359Z,5.43
2022-11-15T01:33:44.004Z,6.22
2022-11-15T01:36:50.459Z,6.60
2022-11-15T01:39:56.665Z,12.45
2022-11-15T01:43:23.433Z,12.18
2022-11-15T01:46:38.544Z,14.57
2022-11-15T01:50:00.681Z,14.77
2022-11-15T01:53:11.890Z,15.52
2022-11-15T01:56:25.761Z,13.13
2022-11-15T01:59:31.984Z,9.07
2022-11-15T02:02:39.205Z,9.45
2022-11-15T02:05:45.807Z,7.22
2022-11-15T02:08:52.872Z,7.22
2022-11-15T02:12:00.341Z,5.25
2022-11-15T02:15:08.745Z,6.32
2022-11-15T02:18:29.298Z,5.00
2022-11-15T02:21:44.936Z,4.63
2022-11-15T02:25:27.504Z,4.32
2022-11-15T02:28:39.442Z,3.67
2022-11-15T02:31:51.328Z,3.95
2022-11-15T02:35:09.250Z,4.13
2022-11-15T02:38:29.281Z,5.43
2022-11-15T02:41:48.511Z,5.53
2022-11-15T02:44:58.538Z,5.57
2022-11-15T02:48:07.392Z,8.85
2022-11-15T02:51:14.896Z,7.55
2022-11-15T02:54:24.512Z,6.53
2022-11-15T02:57:53.906Z,5.85
2022-11-15T03:01:23.373Z,5.97
2022-11-15T03:04:50.210Z,4.85
2022-11-15T03:08:02.771Z,11.10
2022-11-15T03:11:10.891Z,11.77
2022-11-15T03:14:22.506Z,7.68
2022-11-15T03:17:42.448Z,8.63
2022-11-15T03:20:50.395Z,9.88
2022-11-15T03:23:58.398Z,8.10
2022-11-15T03:27:08.086Z,8.23
2022-11-15T03:30:15.027Z,6.70
2022-11-15T03:33:23.183Z,8.13
2022-11-15T03:36:32.648Z,7.70
2022-11-15T03:39:38.644Z,7.53
2022-11-15T03:42:50.086Z,7.32
2022-11-15T03:46:12.845Z,12.23
2022-11-15T03:49:29.274Z,27.33
2022-11-15T03:52:36.131Z,7.82
2022-11-15T03:55:42.465Z,12.50
2022-11-15T03:58:48.760Z,8.73
2022-11-15T04:02:13.371Z,6.88
2022-11-15T04:05:19.789Z,6.88
2022-11-15T04:08:25.897Z,6.25
2022-11-15T04:11:32.297Z,5.85
2022-11-15T04:14:38.396Z,6.38
2022-11-15T04:17:48.080Z,5.38
2022-11-15T04:21:12.721Z,5.85
2022-11-15T04:24:18.858Z,5.60
2022-11-15T04:27:25.334Z,5.82
2022-11-15T04:30:31.596Z,7.30
2022-11-15T04:33:37.844Z,6.93
2022-11-15T04:37:02.394Z,6.75
2022-11-15T04:40:09.276Z,5.68
2022-11-15T04:43:15.459Z,4.75
2022-11-15T04:46:24.856Z,5.05
2022-11-15T04:49:31.230Z,4.63
2022-11-15T04:52:37.516Z,5.10
2022-11-15T04:55:47.254Z,3.97
2022-11-15T04:58:53.756Z,4.45
2022-11-15T05:02:00.250Z,4.30
2022-11-15T05:05:06.833Z,4.93
2022-11-15T05:08:14.878Z,6.30
2022-11-15T05:11:24.308Z,4.68
2022-11-15T05:14:30.575Z,4.95
2022-11-15T05:17:36.876Z,4.90
2022-11-15T05:20:43.272Z,6.35
2022-11-15T05:23:49.713Z,5.57
2022-11-15T05:26:56.072Z,4.82
2022-11-15T05:30:02.009Z,6.18
2022-11-15T05:33:08.332Z,5.88
2022-11-15T05:36:26.850Z,6.60
2022-11-15T05:39:35.571Z,6.50
2022-11-15T05:42:41.791Z,5.40
2022-11-15T05:45:48.530Z,5.53
2022-11-15T05:48:56.959Z,5.03
2022-11-15T05:52:08.227Z,4.68
2022-11-15T05:55:15.091Z,5.30
2022-11-15T05:58:21.895Z,4.97
2022-11-15T06:01:29.425Z,4.70
2022-11-15T06:04:35.337Z,3.92
2022-11-15T06:07:41.296Z,4.07
2022-11-15T06:10:47.678Z,4.07
2022-11-15T06:13:55.909Z,4.22
2022-11-15T06:17:05.974Z,5.15
2022-11-15T06:20:14.519Z,4.13
2022-11-15T06:23:20.869Z,6.78
2022-11-15T06:26:26.960Z,5.30
2022-11-15T06:29:33.190Z,6.95
2022-11-15T06:32:39.494Z,6.30
2022-11-15T06:35:45.646Z,7.35
2022-11-15T06:38:52.184Z,7.32
2022-11-15T06:41:58.637Z,7.22
2022-11-15T06:45:05.167Z,7.75
2022-11-15T06:48:11.566Z,7.80
2022-11-15T06:51:17.460Z,9.25
2022-11-15T06:54:23.729Z,11.30
2022-11-15T06:57:29.981Z,12.07
2022-11-15T07:00:40.744Z,9.30
2022-11-15T07:03:58.230Z,7.63
2022-11-15T07:07:11.686Z,9.05
2022-11-15T07:10:26.494Z,9.40
2022-11-15T07:13:36.741Z,10.32
2022-11-15T07:16:42.769Z,11.45
2022-11-15T07:19:49.138Z,12.73
2022-11-15T07:23:06.336Z,12.45
2022-11-15T07:26:12.652Z,12.32
2022-11-15T07:29:18.768Z,12.85
2022-11-15T07:32:25.000Z,12.45
2022-11-15T07:35:31.371Z,10.88
2022-11-15T07:38:42.417Z,10.35
2022-11-15T07:42:11.813Z,11.23
2022-11-15T07:45:17.924Z,10.50
2022-11-15T07:48:24.283Z,9.38
2022-11-15T07:51:30.707Z,10.18
2022-11-15T07:54:37.005Z,9.52
2022-11-15T07:57:43.506Z,8.90
2022-11-15T08:00:49.560Z,8.95
2022-11-15T08:03:58.052Z,6.93
2022-11-15T08:07:04.384Z,6.88
2022-11-15T08:10:10.666Z,6.50
2022-11-15T08:13:16.626Z,7.50
2022-11-15T08:16:22.730Z,6.85
2022-11-15T08:19:28.839Z,6.47
2022-11-15T08:22:35.195Z,10.63
2022-11-15T08:25:41.336Z,8.73
2022-11-15T08:28:47.249Z,10.23
2022-11-15T08:31:56.339Z,9.18
2022-11-15T08:35:02.231Z,10.68
2022-11-15T08:38:08.650Z,7.68
2022-11-15T08:41:37.048Z,6.65
2022-11-15T08:44:43.332Z,6.70
2022-11-15T08:47:53.969Z,6.20
2022-11-15T08:51:00.666Z,8.40
2022-11-15T08:54:06.769Z,9.13
2022-11-15T08:57:13.682Z,6.88
2022-11-15T09:00:21.134Z,6.53
2022-11-15T09:03:27.248Z,8.38
2022-11-15T09:06:33.296Z,7.28
2022-11-15T09:09:39.599Z,7.93
2022-11-15T09:12:46.453Z,8.85
2022-11-15T09:15:52.616Z,6.30
2022-11-15T09:18:58.928Z,5.55
2022-11-15T09:22:09.062Z,4.15
2022-11-15T09:25:15.372Z,3.70
2022-11-15T09:31:45.549Z,3.13
2022-11-15T09:34:51.762Z,3.33
2022-11-15T09:37:59.504Z,3.83
2022-11-15T09:41:14.214Z,3.90
2022-11-15T09:44:42.235Z,3.97
2022-11-15T09:48:04.637Z,4.50
2022-11-15T09:51:36.930Z,7.00
2022-11-15T09:57:48.724Z,5.32
2022-11-15T10:00:50.220Z,4.93
2022-11-15T10:03:43.237Z,4.45
2022-11-15T10:06:36.211Z,4.40
2022-11-15T10:09:31.591Z,4.45
2022-11-15T10:12:19.604Z,8.25
2022-11-15T10:15:16.143Z,7.03
2022-11-15T10:18:30.325Z,5.25
2022-11-15T10:21:47.192Z,4.50
2022-11-15T10:24:39.088Z,4.18
2022-11-15T10:27:26.779Z,4.25
2022-11-15T10:30:19.609Z,6.75
2022-11-15T10:33:37.672Z,11.50
2022-11-15T10:36:27.909Z,5.80
2022-11-15T10:42:28.186Z,5.88
2022-11-15T10:42:29.913Z,6.82
2022-11-15T10:45:44.331Z,5.80
2022-11-15T10:48:32.333Z,11.63
2022-11-15T10:51:29.460Z,6.35
2022-11-15T10:54:42.711Z,6.13
2022-11-15T10:57:34.337Z,6.47
2022-11-15T11:00:22.117Z,4.90
2022-11-15T11:03:36.815Z,4.72
2022-11-15T11:06:24.542Z,3.50
2022-11-15T11:09:23.022Z,3.85
2022-11-15T11:12:13.869Z,3.75
2022-11-15T11:15:10.735Z,5.18
2022-11-15T11:18:23.830Z,3.53
2022-11-15T11:21:16.483Z,2.92
2022-11-15T11:24:09.886Z,3.50
2022-11-15T11:27:32.770Z,4.35
2022-11-15T11:30:26.233Z,3.70
2022-11-15T11:33:26.154Z,3.72
2022-11-15T11:36:37.336Z,4.15
2022-11-15T11:39:34.459Z,5.28
2022-11-15T11:42:37.077Z,3.97
2022-11-15T11:45:51.783Z,4.25
2022-11-15T11:49:02.416Z,6.07
2022-11-15T11:52:23.211Z,4.80
2022-11-15T11:55:20.489Z,5.03
2022-11-15T11:58:35.465Z,5.03
2022-11-15T12:01:32.023Z,4.38
2022-11-15T12:04:30.953Z,4.18
2022-11-15T12:07:31.670Z,5.40
2022-11-15T12:10:31.136Z,6.03
2022-11-15T12:13:25.755Z,4.10
2022-11-15T12:16:23.828Z,5.63
2022-11-15T12:19:11.507Z,6.57
2022-11-15T12:22:10.184Z,14.48
2022-11-15T12:25:00.847Z,4.15
2022-11-15T12:27:51.848Z,4.70
2022-11-15T12:30:49.410Z,4.43
2022-11-15T12:33:43.899Z,4.32
2022-11-15T12:36:37.415Z,6.75
2022-11-15T12:40:07.830Z,5.00
2022-11-15T12:43:26.469Z,6.10
2022-11-15T12:46:21.752Z,5.35
2022-11-15T12:49:25.512Z,6.82
2022-11-15T12:52:13.270Z,5.53
2022-11-15T12:55:03.208Z,5.43
2022-11-15T12:57:51.029Z,5.13
2022-11-15T13:00:39.393Z,5.22
2022-11-15T13:03:29.037Z,6.13
2022-11-15T13:06:40.052Z,6.57
2022-11-15T13:09:33.703Z,5.68
2022-11-15T13:12:27.561Z,5.78
2022-11-15T13:15:15.866Z,6.05
2022-11-15T13:18:40.555Z,6.93
2022-11-15T13:21:46.565Z,5.55
2022-11-15T13:24:34.309Z,4.93
2022-11-15T13:27:22.259Z,5.63
2022-11-15T13:30:22.026Z,6.80
2022-11-15T13:33:15.886Z,5.28
2022-11-15T13:36:30.115Z,6.25
2022-11-15T13:39:35.052Z,5.03
2022-11-15T13:42:29.949Z,6.03
2022-11-15T13:45:20.017Z,9.23
2022-11-15T13:48:09.585Z,7.10
2022-11-15T13:50:59.063Z,6.50
2022-11-15T13:53:52.261Z,7.47
2022-11-15T13:56:44.296Z,13.48
2022-11-15T13:59:35.950Z,8.52
2022-11-15T14:02:31.309Z,7.43
2022-11-15T14:05:22.450Z,9.20
2022-11-15T14:08:22.904Z,8.65
2022-11-15T14:11:19.564Z,9.85
2022-11-15T14:14:10.744Z,10.82
2022-11-15T14:17:02.182Z,9.23
2022-11-15T14:19:49.914Z,10.55
2022-11-15T14:22:39.000Z,9.88
2022-11-15T14:25:29.025Z,9.70
2022-11-15T14:28:31.967Z,10.02
2022-11-15T14:31:22.155Z,9.48
2022-11-15T14:34:10.247Z,9.75
2022-11-15T14:36:58.001Z,8.07
2022-11-15T14:39:45.641Z,8.25
2022-11-15T14:42:33.670Z,8.40
2022-11-15T14:45:23.088Z,8.70
2022-11-15T14:48:13.127Z,8.80
2022-11-15T14:51:00.731Z,7.13
2022-11-15T14:53:51.854Z,7.30
2022-11-15T14:56:43.879Z,6.38
2022-11-15T14:59:31.596Z,8.90
2022-11-15T15:02:25.389Z,9.02
2022-11-15T15:05:22.072Z,11.05
2022-11-15T15:08:13.147Z,22.95
2022-11-15T15:11:00.942Z,12.45
2022-11-15T15:13:48.895Z,11.10
2022-11-15T15:16:39.429Z,12.27
2022-11-15T15:19:27.150Z,10.55
2022-11-15T15:22:18.133Z,12.68
2022-11-15T15:25:30.032Z,14.80
2022-11-15T15:28:17.693Z,16.48
2022-11-15T15:31:05.508Z,15.48
2022-11-15T15:33:53.172Z,14.77
2022-11-15T15:36:41.007Z,15.48
2022-11-15T15:39:28.712Z,16.63
2022-11-15T15:42:16.376Z,12.40
2022-11-15T15:45:04.296Z,11.63
2022-11-15T15:47:57.304Z,16.63
2022-11-15T15:50:46.325Z,14.27
2022-11-15T15:53:34.283Z,13.73
2022-11-15T15:56:21.984Z,14.18
2022-11-15T15:59:09.680Z,16.02
2022-11-15T16:01:57.410Z,14.45
2022-11-15T16:04:45.141Z,13.48
2022-11-15T16:07:33.236Z,11.18
2022-11-15T16:10:20.908Z,11.48
2022-11-15T16:13:08.743Z,14.07
2022-11-15T16:15:56.542Z,20.20
2022-11-15T16:18:44.288Z,20.38
2022-11-15T16:21:32.123Z,12.75
2022-11-15T16:24:24.359Z,9.85
2022-11-15T16:30:16.335Z,13.20
2022-11-15T16:33:04.313Z,13.48
2022-11-15T16:35:54.758Z,16.75
2022-11-15T16:38:42.399Z,19.35
2022-11-15T16:41:34.653Z,15.05
2022-11-15T16:44:45.189Z,12.82
2022-11-15T16:47:32.881Z,9.70
2022-11-15T16:50:29.935Z,11.00
2022-11-15T16:53:17.914Z,10.23
2022-11-15T16:56:31.757Z,12.05
2022-11-15T16:59:21.165Z,10.57
2022-11-15T17:02:20.901Z,13.02
2022-11-15T17:05:11.745Z,10.48
2022-11-15T17:08:02.330Z,9.93
2022-11-15T17:10:53.570Z,9.45
2022-11-15T17:13:41.319Z,9.40
2022-11-15T17:16:29.162Z,14.27
2022-11-15T17:19:19.191Z,12.75
2022-11-15T17:22:06.976Z,17.42
2022-11-15T17:24:54.642Z,13.65
2022-11-15T17:27:42.583Z,10.98
2022-11-15T17:30:30.214Z,11.07
2022-11-15T17:33:17.936Z,10.52
2022-11-15T17:36:07.716Z,12.35
2022-11-15T17:38:59.304Z,9.32
2022-11-15T17:41:50.703Z,8.82
2022-11-15T17:44:40.908Z,9.35
2022-11-15T17:47:28.577Z,11.60
2022-11-15T17:50:18.009Z,11.05
2022-11-15T17:53:05.862Z,13.45
2022-11-15T17:55:54.124Z,12.70
2022-11-15T17:58:42.226Z,11.60
2022-11-15T18:01:32.367Z,10.68
2022-11-15T18:04:20.310Z,9.95
2022-11-15T18:07:08.111Z,8.85
2022-11-15T18:09:58.041Z,9.13
2022-11-15T18:12:45.814Z,7.95
2022-11-15T18:15:33.521Z,8.43
2022-11-15T18:18:21.281Z,9.45
2022-11-15T18:21:13.554Z,9.68
2022-11-15T18:26:53.061Z,13.10
2022-11-15T18:29:46.911Z,22.00
2022-11-15T18:32:34.653Z,12.60
2022-11-15T18:35:22.295Z,29.40
2022-11-15T18:38:09.971Z,16.52
2022-11-15T18:40:59.805Z,16.38
2022-11-15T18:43:51.594Z,20.48
2022-11-15T18:46:40.312Z,15.43
2022-11-15T18:49:28.444Z,12.70
2022-11-15T18:52:20.125Z,11.48
2022-11-15T18:55:09.684Z,9.45
2022-11-15T18:58:00.038Z,11.00
2022-11-15T19:00:50.866Z,9.98
2022-11-15T19:03:41.635Z,9.93
2022-11-15T19:06:32.945Z,8.68
2022-11-15T19:09:21.027Z,10.73
2022-11-15T19:12:12.189Z,10.48
2022-11-15T19:14:59.931Z,11.23
2022-11-15T19:17:50.820Z,8.50
2022-11-15T19:20:38.684Z,8.35
2022-11-15T19:23:26.424Z,9.18
2022-11-15T19:26:16.103Z,10.32
2022-11-15T19:29:07.931Z,10.07
2022-11-15T19:31:55.648Z,10.18
2022-11-15T19:34:43.381Z,9.15
2022-11-15T19:37:31.223Z,10.40
2022-11-15T19:40:18.880Z,11.55
2022-11-15T19:43:07.104Z,13.48
2022-11-15T19:46:01.926Z,15.82
2022-11-15T19:48:51.357Z,18.33
2022-11-15T19:51:41.830Z,17.05
2022-11-15T19:54:29.559Z,10.38
2022-11-15T19:57:17.441Z,10.98
2022-11-15T20:00:07.528Z,9.43
2022-11-15T20:02:55.432Z,8.55
2022-11-15T20:05:43.808Z,7.22
2022-11-15T20:08:33.058Z,7.32
2022-11-15T20:11:21.714Z,8.68
2022-11-15T20:14:11.805Z,7.32
2022-11-15T20:16:59.683Z,8.20
2022-11-15T20:19:47.378Z,8.38
2022-11-15T20:22:35.059Z,7.85
2022-11-15T20:25:22.733Z,7.88
2022-11-15T20:28:13.646Z,8.75
2022-11-15T20:31:01.916Z,8.95
2022-11-15T20:33:49.527Z,9.02
2022-11-15T20:36:37.264Z,11.98
2022-11-15T20:39:25.415Z,13.38
2022-11-15T20:42:13.206Z,16.55
2022-11-15T20:45:02.048Z,16.75
2022-11-15T20:47:49.820Z,15.40
2022-11-15T20:50:44.608Z,12.55
2022-11-15T20:53:32.688Z,12.88
2022-11-15T20:56:22.337Z,24.20
2022-11-15T20:59:09.991Z,19.58
2022-11-15T21:01:57.849Z,14.18
2022-11-15T21:04:45.712Z,16.55
2022-11-15T21:07:33.547Z,12.07
2022-11-15T21:10:39.761Z,10.65
2022-11-15T21:13:27.574Z,10.68
2022-11-15T21:16:17.079Z,10.63
2022-11-15T21:19:05.900Z,10.32
2022-11-15T21:21:53.761Z,10.13
2022-11-15T21:24:41.703Z,10.30
2022-11-15T21:27:29.282Z,14.45
2022-11-15T21:30:17.314Z,15.27
2022-11-15T21:33:04.950Z,12.07
2022-11-15T21:35:52.774Z,11.90
2022-11-15T21:38:40.475Z,11.18
2022-11-15T21:41:28.293Z,11.07
2022-11-15T21:44:16.133Z,11.38
2022-11-15T21:47:03.836Z,12.70
2022-11-15T21:49:51.659Z,13.20
2022-11-15T21:52:39.293Z,12.35
2022-11-15T21:55:27.102Z,11.73
2022-11-15T21:58:14.814Z,12.32
2022-11-15T22:01:21.492Z,13.95
2022-11-15T22:04:09.930Z,12.60
2022-11-15T22:06:57.767Z,11.43
2022-11-15T22:09:45.437Z,11.05
2022-11-15T22:12:33.138Z,10.60
2022-11-15T22:15:21.088Z,11.35
2022-11-15T22:18:15.294Z,12.07
2022-11-15T22:21:05.664Z,10.50
2022-11-15T22:23:53.506Z,9.40
2022-11-15T22:26:41.317Z,9.73
2022-11-15T22:29:29.078Z,9.57
2022-11-15T22:32:16.736Z,8.85
2022-11-15T22:35:04.685Z,9.73
2022-11-15T22:37:53.008Z,9.07
2022-11-15T22:40:49.167Z,9.55
2022-11-15T22:43:37.289Z,8.50
2022-11-15T22:46:25.070Z,8.40
2022-11-15T22:49:12.768Z,9.45
2022-11-15T22:52:00.565Z,10.70
2022-11-15T22:54:48.226Z,14.55
2022-11-15T22:57:38.494Z,14.48
2022-11-15T23:00:26.315Z,17.05
2022-11-15T23:03:14.146Z,17.23
2022-11-15T23:06:06.887Z,16.52
2022-11-15T23:08:54.691Z,13.93
2022-11-15T23:12:00.793Z,14.88
2022-11-15T23:14:48.467Z,13.68
2022-11-15T23:17:36.200Z,17.48
2022-11-15T23:20:42.489Z,14.60
2022-11-15T23:23:30.891Z,12.00
2022-11-15T23:26:18.667Z,12.07
2022-11-15T23:29:08.606Z,12.52
2022-11-15T23:32:32.803Z,12.10
2022-11-15T23:35:20.669Z,12.77
2022-11-15T23:38:08.364Z,10.35
2022-11-15T23:40:56.083Z,9.13
2022-11-15T23:43:43.942Z,13.75
2022-11-15T23:46:31.784Z,13.88
2022-11-15T23:49:19.738Z,13.13
2022-11-15T23:52:07.406Z,13.95
2022-11-15T23:54:55.080Z,13.15
2022-11-15T23:57:42.770Z,11.35
